sensor_id;sensor_type;location;lat;lon;timestamp;temperature;humidity
21772;DHT22;11047;47.904;8.110;2022-12-08T00:01:30;-3.40;99.90
21772;DHT22;11047;47.904;8.110;2022-12-08T00:03:58;-3.50;99.90
21772;DHT22;11047;47.904;8.110;2022-12-08T00:06:27;-3.50;99.90
21772;DHT22;11047;47.904;8.110;2022-12-08T00:09:24;-3.60;99.90
21772;DHT22;11047;47.904;8.110;2022-12-08T00:11:56;-3.50;99.90
21772;DHT22;11047;47.904;8.110;2022-12-08T00:14:26;-3.50;99.90
21772;DHT22;11047;47.904;8.110;2022-12-08T00:16:54;-3.50;99.90
21772;DHT22;11047;47.904;8.110;2022-12-08T00:19:21;-3.40;99.90
21772;DHT22;11047;47.904;8.110;2022-12-08T00:21:49;-3.30;99.90
21772;DHT22;11047;47.904;8.110;2022-12-08T00:24:16;-3.30;99.90
21772;DHT22;11047;47.904;8.110;2022-12-08T00:26:45;-3.30;99.90
21772;DHT22;11047;47.904;8.110;2022-12-08T00:29:12;-3.30;99.90
21772;DHT22;11047;47.904;8.110;2022-12-08T00:31:39;-3.20;99.90
21772;DHT22;11047;47.904;8.110;2022-12-08T00:34:07;-3.20;99.90
21772;DHT22;11047;47.904;8.110;2022-12-08T00:36:34;-3.30;99.90
21772;DHT22;11047;47.904;8.110;2022-12-08T00:39:01;-3.20;99.90
21772;DHT22;11047;47.904;8.110;2022-12-08T00:41:28;-3.20;99.90
21772;DHT22;11047;47.904;8.110;2022-12-08T00:44:16;-3.30;99.90
21772;DHT22;11047;47.904;8.110;2022-12-08T00:46:44;-3.30;99.90
21772;DHT22;11047;47.904;8.110;2022-12-08T00:49:12;-3.20;99.90
21772;DHT22;11047;47.904;8.110;2022-12-08T00:51:39;-3.10;99.90
21772;DHT22;11047;47.904;8.110;2022-12-08T00:54:06;-3.10;99.90
21772;DHT22;11047;47.904;8.110;2022-12-08T00:56:34;-3.10;99.90
21772;DHT22;11047;47.904;8.110;2022-12-08T00:59:02;-3.10;99.90
21772;DHT22;11047;47.904;8.110;2022-12-08T01:01:30;-3.10;99.90
21772;DHT22;11047;47.904;8.110;2022-12-08T01:03:57;-3.20;99.90
21772;DHT22;11047;47.904;8.110;2022-12-08T01:06:27;-3.20;99.90
21772;DHT22;11047;47.904;8.110;2022-12-08T01:08:54;-3.30;99.90
21772;DHT22;11047;47.904;8.110;2022-12-08T01:11:21;-3.30;99.90
21772;DHT22;11047;47.904;8.110;2022-12-08T01:13:48;-3.30;99.90
21772;DHT22;11047;47.904;8.110;2022-12-08T01:16:19;-3.50;99.90
21772;DHT22;11047;47.904;8.110;2022-12-08T01:18:48;-3.50;99.90
21772;DHT22;11047;47.904;8.110;2022-12-08T01:21:15;-3.20;99.90
21772;DHT22;11047;47.904;8.110;2022-12-08T01:23:42;-3.50;99.90
21772;DHT22;11047;47.904;8.110;2022-12-08T01:26:11;-3.50;99.90
21772;DHT22;11047;47.904;8.110;2022-12-08T01:28:39;-3.50;99.90
21772;DHT22;11047;47.904;8.110;2022-12-08T01:31:11;-3.60;99.90
21772;DHT22;11047;47.904;8.110;2022-12-08T01:33:39;-3.60;99.90
21772;DHT22;11047;47.904;8.110;2022-12-08T01:36:08;-3.70;99.90
21772;DHT22;11047;47.904;8.110;2022-12-08T01:38:36;-3.70;99.90
21772;DHT22;11047;47.904;8.110;2022-12-08T01:41:02;-3.70;99.90
21772;DHT22;11047;47.904;8.110;2022-12-08T01:43:57;-3.70;99.90
21772;DHT22;11047;47.904;8.110;2022-12-08T01:46:24;-3.70;99.90
21772;DHT22;11047;47.904;8.110;2022-12-08T01:48:57;-3.70;99.90
21772;DHT22;11047;47.904;8.110;2022-12-08T01:51:27;-3.70;99.90
21772;DHT22;11047;47.904;8.110;2022-12-08T01:53:54;-3.70;99.90
21772;DHT22;11047;47.904;8.110;2022-12-08T01:56:26;-3.80;99.90
21772;DHT22;11047;47.904;8.110;2022-12-08T01:58:56;-3.80;99.90
21772;DHT22;11047;47.904;8.110;2022-12-08T02:01:23;-3.80;99.90
21772;DHT22;11047;47.904;8.110;2022-12-08T02:03:54;-3.80;99.90
21772;DHT22;11047;47.904;8.110;2022-12-08T02:06:21;-3.90;99.90
21772;DHT22;11047;47.904;8.110;2022-12-08T02:08:50;-4.00;99.90
21772;DHT22;11047;47.904;8.110;2022-12-08T02:11:19;-3.90;99.90
21772;DHT22;11047;47.904;8.110;2022-12-08T02:13:47;-3.90;99.90
21772;DHT22;11047;47.904;8.110;2022-12-08T02:16:24;-4.00;99.90
21772;DHT22;11047;47.904;8.110;2022-12-08T02:19:06;-3.90;99.90
21772;DHT22;11047;47.904;8.110;2022-12-08T02:21:41;-4.00;99.90
21772;DHT22;11047;47.904;8.110;2022-12-08T02:24:17;-4.00;99.90
21772;DHT22;11047;47.904;8.110;2022-12-08T02:27:04;-4.00;99.90
21772;DHT22;11047;47.904;8.110;2022-12-08T02:29:51;-4.00;99.90
21772;DHT22;11047;47.904;8.110;2022-12-08T02:32:43;-4.10;99.90
21772;DHT22;11047;47.904;8.110;2022-12-08T02:35:16;-4.20;99.90
21772;DHT22;11047;47.904;8.110;2022-12-08T02:37:48;-4.10;99.90
21772;DHT22;11047;47.904;8.110;2022-12-08T02:40:21;-4.10;99.90
21772;DHT22;11047;47.904;8.110;2022-12-08T02:42:55;-4.10;99.90
21772;DHT22;11047;47.904;8.110;2022-12-08T02:45:27;-4.10;99.90
21772;DHT22;11047;47.904;8.110;2022-12-08T02:47:57;-4.10;99.90
21772;DHT22;11047;47.904;8.110;2022-12-08T02:50:25;-4.30;99.90
21772;DHT22;11047;47.904;8.110;2022-12-08T02:52:52;-4.40;99.90
21772;DHT22;11047;47.904;8.110;2022-12-08T02:55:24;-4.40;99.90
21772;DHT22;11047;47.904;8.110;2022-12-08T02:58:20;-4.40;99.90
21772;DHT22;11047;47.904;8.110;2022-12-08T03:01:05;-4.30;99.90
21772;DHT22;11047;47.904;8.110;2022-12-08T03:03:40;-4.30;99.90
21772;DHT22;11047;47.904;8.110;2022-12-08T03:06:17;-4.30;99.90
21772;DHT22;11047;47.904;8.110;2022-12-08T03:08:50;-4.30;99.90
21772;DHT22;11047;47.904;8.110;2022-12-08T03:11:24;-4.30;99.90
21772;DHT22;11047;47.904;8.110;2022-12-08T03:13:58;-4.30;99.90
21772;DHT22;11047;47.904;8.110;2022-12-08T03:16:27;-4.30;99.90
21772;DHT22;11047;47.904;8.110;2022-12-08T03:18:59;-4.30;99.90
21772;DHT22;11047;47.904;8.110;2022-12-08T03:21:35;-4.40;99.90
21772;DHT22;11047;47.904;8.110;2022-12-08T03:24:06;-4.40;99.90
21772;DHT22;11047;47.904;8.110;2022-12-08T03:26:41;-4.40;99.90
21772;DHT22;11047;47.904;8.110;2022-12-08T03:29:18;-4.40;99.90
21772;DHT22;11047;47.904;8.110;2022-12-08T03:31:50;-4.30;99.90
21772;DHT22;11047;47.904;8.110;2022-12-08T03:34:19;-4.30;99.90
21772;DHT22;11047;47.904;8.110;2022-12-08T03:36:49;-4.20;99.90
21772;DHT22;11047;47.904;8.110;2022-12-08T03:39:15;-4.20;99.90
21772;DHT22;11047;47.904;8.110;2022-12-08T03:41:42;-4.30;99.90
21772;DHT22;11047;47.904;8.110;2022-12-08T03:44:09;-4.40;99.90
21772;DHT22;11047;47.904;8.110;2022-12-08T03:46:36;-4.50;99.90
21772;DHT22;11047;47.904;8.110;2022-12-08T03:49:03;-4.50;99.90
21772;DHT22;11047;47.904;8.110;2022-12-08T03:51:30;-4.50;99.90
21772;DHT22;11047;47.904;8.110;2022-12-08T03:53:58;-4.40;99.90
21772;DHT22;11047;47.904;8.110;2022-12-08T03:56:28;-4.30;99.90
21772;DHT22;11047;47.904;8.110;2022-12-08T03:58:55;-4.30;99.90
21772;DHT22;11047;47.904;8.110;2022-12-08T04:01:23;-4.20;99.90
21772;DHT22;11047;47.904;8.110;2022-12-08T04:03:51;-4.10;99.90
21772;DHT22;11047;47.904;8.110;2022-12-08T04:06:18;-4.10;99.90
21772;DHT22;11047;47.904;8.110;2022-12-08T04:08:46;-4.00;99.90
21772;DHT22;11047;47.904;8.110;2022-12-08T04:11:14;-3.90;99.90
21772;DHT22;11047;47.904;8.110;2022-12-08T04:13:41;-3.90;99.90
21772;DHT22;11047;47.904;8.110;2022-12-08T04:16:14;-3.50;99.90
21772;DHT22;11047;47.904;8.110;2022-12-08T04:18:42;-3.90;99.90
21772;DHT22;11047;47.904;8.110;2022-12-08T04:21:09;-3.90;99.90
21772;DHT22;11047;47.904;8.110;2022-12-08T04:23:36;-3.80;99.90
21772;DHT22;11047;47.904;8.110;2022-12-08T04:26:03;-3.80;99.90
21772;DHT22;11047;47.904;8.110;2022-12-08T04:28:32;-3.80;99.90
21772;DHT22;11047;47.904;8.110;2022-12-08T04:30:59;-3.80;99.90
21772;DHT22;11047;47.904;8.110;2022-12-08T04:33:26;-3.80;99.90
21772;DHT22;11047;47.904;8.110;2022-12-08T04:35:53;-3.80;99.90
21772;DHT22;11047;47.904;8.110;2022-12-08T04:38:20;-3.90;99.90
21772;DHT22;11047;47.904;8.110;2022-12-08T04:40:47;-3.90;99.90
21772;DHT22;11047;47.904;8.110;2022-12-08T04:43:14;-3.80;99.90
21772;DHT22;11047;47.904;8.110;2022-12-08T04:45:42;-3.80;99.90
21772;DHT22;11047;47.904;8.110;2022-12-08T04:48:10;-3.80;99.90
21772;DHT22;11047;47.904;8.110;2022-12-08T04:50:39;-2.60;99.90
21772;DHT22;11047;47.904;8.110;2022-12-08T04:53:07;-3.60;99.90
21772;DHT22;11047;47.904;8.110;2022-12-08T04:55:36;-3.70;99.90
21772;DHT22;11047;47.904;8.110;2022-12-08T04:58:03;-3.70;99.90
21772;DHT22;11047;47.904;8.110;2022-12-08T05:00:30;-3.80;99.90
21772;DHT22;11047;47.904;8.110;2022-12-08T05:02:58;-3.70;99.90
21772;DHT22;11047;47.904;8.110;2022-12-08T05:05:25;-3.80;99.90
21772;DHT22;11047;47.904;8.110;2022-12-08T05:07:52;-3.90;99.90
21772;DHT22;11047;47.904;8.110;2022-12-08T05:10:19;-4.00;99.90
21772;DHT22;11047;47.904;8.110;2022-12-08T05:12:46;-4.00;99.90
21772;DHT22;11047;47.904;8.110;2022-12-08T05:15:13;-4.00;99.90
21772;DHT22;11047;47.904;8.110;2022-12-08T05:17:40;-4.00;99.90
21772;DHT22;11047;47.904;8.110;2022-12-08T05:20:10;-4.00;99.90
21772;DHT22;11047;47.904;8.110;2022-12-08T05:22:37;-4.00;99.90
21772;DHT22;11047;47.904;8.110;2022-12-08T05:25:04;-3.50;99.90
21772;DHT22;11047;47.904;8.110;2022-12-08T05:27:31;-4.00;99.90
21772;DHT22;11047;47.904;8.110;2022-12-08T05:29:58;-4.10;99.90
21772;DHT22;11047;47.904;8.110;2022-12-08T05:32:25;-4.10;99.90
21772;DHT22;11047;47.904;8.110;2022-12-08T05:34:52;-4.30;99.90
21772;DHT22;11047;47.904;8.110;2022-12-08T05:37:20;-4.20;99.90
21772;DHT22;11047;47.904;8.110;2022-12-08T05:39:47;-4.20;99.90
21772;DHT22;11047;47.904;8.110;2022-12-08T05:42:14;-4.20;99.90
21772;DHT22;11047;47.904;8.110;2022-12-08T05:44:41;-4.30;99.90
21772;DHT22;11047;47.904;8.110;2022-12-08T05:47:08;-3.10;99.90
21772;DHT22;11047;47.904;8.110;2022-12-08T05:49:35;-4.30;99.90
21772;DHT22;11047;47.904;8.110;2022-12-08T05:52:02;-4.30;99.90
21772;DHT22;11047;47.904;8.110;2022-12-08T05:54:30;-4.40;99.90
21772;DHT22;11047;47.904;8.110;2022-12-08T05:56:57;-4.30;99.90
21772;DHT22;11047;47.904;8.110;2022-12-08T05:59:25;-4.60;99.90
21772;DHT22;11047;47.904;8.110;2022-12-08T06:01:52;-4.60;99.90
21772;DHT22;11047;47.904;8.110;2022-12-08T06:04:19;-4.60;99.90
21772;DHT22;11047;47.904;8.110;2022-12-08T06:06:46;-4.50;99.90
21772;DHT22;11047;47.904;8.110;2022-12-08T06:09:13;-4.60;99.90
21772;DHT22;11047;47.904;8.110;2022-12-08T06:11:41;-4.60;99.90
21772;DHT22;11047;47.904;8.110;2022-12-08T06:14:11;-4.60;99.90
21772;DHT22;11047;47.904;8.110;2022-12-08T06:16:38;-4.50;99.90
21772;DHT22;11047;47.904;8.110;2022-12-08T06:19:05;-4.60;99.90
21772;DHT22;11047;47.904;8.110;2022-12-08T06:21:32;-4.80;99.90
21772;DHT22;11047;47.904;8.110;2022-12-08T06:23:59;-4.80;99.90
21772;DHT22;11047;47.904;8.110;2022-12-08T06:26:25;-4.90;99.90
21772;DHT22;11047;47.904;8.110;2022-12-08T06:28:55;-4.80;99.90
21772;DHT22;11047;47.904;8.110;2022-12-08T06:31:23;-4.70;99.90
21772;DHT22;11047;47.904;8.110;2022-12-08T06:33:51;-4.70;99.90
21772;DHT22;11047;47.904;8.110;2022-12-08T06:36:20;-4.70;99.90
21772;DHT22;11047;47.904;8.110;2022-12-08T06:38:47;-4.80;99.90
21772;DHT22;11047;47.904;8.110;2022-12-08T06:41:15;-4.90;99.90
21772;DHT22;11047;47.904;8.110;2022-12-08T06:43:42;-4.90;99.90
21772;DHT22;11047;47.904;8.110;2022-12-08T06:46:13;-4.80;99.90
21772;DHT22;11047;47.904;8.110;2022-12-08T06:48:40;-4.80;99.90
21772;DHT22;11047;47.904;8.110;2022-12-08T06:51:08;-4.80;99.90
21772;DHT22;11047;47.904;8.110;2022-12-08T06:53:35;-4.90;99.90
21772;DHT22;11047;47.904;8.110;2022-12-08T06:56:03;-4.90;99.90
21772;DHT22;11047;47.904;8.110;2022-12-08T06:58:30;-4.80;99.90
21772;DHT22;11047;47.904;8.110;2022-12-08T07:01:02;-4.60;99.90
21772;DHT22;11047;47.904;8.110;2022-12-08T07:03:30;-5.00;99.90
21772;DHT22;11047;47.904;8.110;2022-12-08T07:05:57;-5.10;99.90
21772;DHT22;11047;47.904;8.110;2022-12-08T07:08:24;-5.00;99.90
21772;DHT22;11047;47.904;8.110;2022-12-08T07:10:51;-5.00;99.90
21772;DHT22;11047;47.904;8.110;2022-12-08T07:13:18;-5.00;99.90
21772;DHT22;11047;47.904;8.110;2022-12-08T07:15:45;-5.00;99.90
21772;DHT22;11047;47.904;8.110;2022-12-08T07:18:12;-5.10;99.90
21772;DHT22;11047;47.904;8.110;2022-12-08T07:20:40;-5.00;99.90
21772;DHT22;11047;47.904;8.110;2022-12-08T07:23:07;-5.00;99.90
21772;DHT22;11047;47.904;8.110;2022-12-08T07:25:34;-5.00;99.90
21772;DHT22;11047;47.904;8.110;2022-12-08T07:28:02;-4.00;99.90
21772;DHT22;11047;47.904;8.110;2022-12-08T07:30:32;-5.00;99.90
21772;DHT22;11047;47.904;8.110;2022-12-08T07:33:00;-5.00;99.90
21772;DHT22;11047;47.904;8.110;2022-12-08T07:35:27;-5.00;99.90
21772;DHT22;11047;47.904;8.110;2022-12-08T07:37:55;-5.10;99.90
21772;DHT22;11047;47.904;8.110;2022-12-08T07:40:23;-5.00;99.90
21772;DHT22;11047;47.904;8.110;2022-12-08T07:42:50;-5.00;99.90
21772;DHT22;11047;47.904;8.110;2022-12-08T07:45:17;-4.90;99.90
21772;DHT22;11047;47.904;8.110;2022-12-08T07:47:44;-4.90;99.90
21772;DHT22;11047;47.904;8.110;2022-12-08T07:50:11;-5.00;99.90
21772;DHT22;11047;47.904;8.110;2022-12-08T07:52:37;-5.00;99.90
21772;DHT22;11047;47.904;8.110;2022-12-08T07:55:07;-5.10;99.90
21772;DHT22;11047;47.904;8.110;2022-12-08T07:57:34;-5.00;99.90
21772;DHT22;11047;47.904;8.110;2022-12-08T08:00:01;-4.90;99.90
21772;DHT22;11047;47.904;8.110;2022-12-08T08:02:28;-4.90;99.90
21772;DHT22;11047;47.904;8.110;2022-12-08T08:04:55;-4.90;99.90
21772;DHT22;11047;47.904;8.110;2022-12-08T08:07:22;-4.90;99.90
21772;DHT22;11047;47.904;8.110;2022-12-08T08:09:49;-4.80;99.90
21772;DHT22;11047;47.904;8.110;2022-12-08T08:12:17;-4.80;99.90
21772;DHT22;11047;47.904;8.110;2022-12-08T08:14:44;-4.80;99.90
21772;DHT22;11047;47.904;8.110;2022-12-08T08:17:11;-4.80;99.90
21772;DHT22;11047;47.904;8.110;2022-12-08T08:19:38;-4.70;99.90
21772;DHT22;11047;47.904;8.110;2022-12-08T08:22:05;-3.80;99.90
21772;DHT22;11047;47.904;8.110;2022-12-08T08:24:32;-4.60;99.90
21772;DHT22;11047;47.904;8.110;2022-12-08T08:26:59;-4.60;99.90
21772;DHT22;11047;47.904;8.110;2022-12-08T08:29:27;-4.70;99.90
21772;DHT22;11047;47.904;8.110;2022-12-08T08:31:54;-4.70;99.90
21772;DHT22;11047;47.904;8.110;2022-12-08T08:34:21;-4.60;99.90
21772;DHT22;11047;47.904;8.110;2022-12-08T08:36:48;-4.50;99.90
21772;DHT22;11047;47.904;8.110;2022-12-08T08:39:15;-4.40;99.90
21772;DHT22;11047;47.904;8.110;2022-12-08T08:41:42;-4.30;99.90
21772;DHT22;11047;47.904;8.110;2022-12-08T08:44:08;-4.30;99.90
21772;DHT22;11047;47.904;8.110;2022-12-08T08:46:37;-3.70;99.90
21772;DHT22;11047;47.904;8.110;2022-12-08T08:49:04;-1.80;99.90
21772;DHT22;11047;47.904;8.110;2022-12-08T08:51:30;-1.90;99.90
21772;DHT22;11047;47.904;8.110;2022-12-08T08:53:57;-1.70;99.90
21772;DHT22;11047;47.904;8.110;2022-12-08T08:56:24;-1.60;99.90
21772;DHT22;11047;47.904;8.110;2022-12-08T08:58:52;-1.00;99.90
21772;DHT22;11047;47.904;8.110;2022-12-08T09:01:24;0.10;99.90
21772;DHT22;11047;47.904;8.110;2022-12-08T09:03:53;2.00;99.90
21772;DHT22;11047;47.904;8.110;2022-12-08T09:06:21;3.50;99.90
21772;DHT22;11047;47.904;8.110;2022-12-08T09:08:49;4.80;99.90
21772;DHT22;11047;47.904;8.110;2022-12-08T09:11:16;6.10;99.90
21772;DHT22;11047;47.904;8.110;2022-12-08T09:13:46;7.20;99.90
21772;DHT22;11047;47.904;8.110;2022-12-08T09:16:13;8.10;99.90
21772;DHT22;11047;47.904;8.110;2022-12-08T09:18:40;8.90;99.90
21772;DHT22;11047;47.904;8.110;2022-12-08T09:21:11;9.10;99.90
21772;DHT22;11047;47.904;8.110;2022-12-08T09:23:39;9.70;99.90
21772;DHT22;11047;47.904;8.110;2022-12-08T09:26:07;10.00;99.90
21772;DHT22;11047;47.904;8.110;2022-12-08T09:28:34;9.80;99.90
21772;DHT22;11047;47.904;8.110;2022-12-08T09:31:01;10.50;99.90
21772;DHT22;11047;47.904;8.110;2022-12-08T09:33:28;11.40;99.90
21772;DHT22;11047;47.904;8.110;2022-12-08T09:35:55;11.50;99.90
21772;DHT22;11047;47.904;8.110;2022-12-08T09:38:23;11.30;99.90
21772;DHT22;11047;47.904;8.110;2022-12-08T09:40:51;11.40;99.90
21772;DHT22;11047;47.904;8.110;2022-12-08T09:43:32;11.70;99.90
21772;DHT22;11047;47.904;8.110;2022-12-08T09:46:06;11.90;99.90
21772;DHT22;11047;47.904;8.110;2022-12-08T09:48:36;11.90;99.90
21772;DHT22;11047;47.904;8.110;2022-12-08T09:51:05;12.30;99.90
21772;DHT22;11047;47.904;8.110;2022-12-08T09:53:35;12.60;99.90
21772;DHT22;11047;47.904;8.110;2022-12-08T09:56:10;12.40;99.90
21772;DHT22;11047;47.904;8.110;2022-12-08T09:58:44;12.60;99.90
21772;DHT22;11047;47.904;8.110;2022-12-08T10:01:14;12.50;99.90
21772;DHT22;11047;47.904;8.110;2022-12-08T10:03:42;13.50;99.90
21772;DHT22;11047;47.904;8.110;2022-12-08T10:06:16;13.50;99.90
21772;DHT22;11047;47.904;8.110;2022-12-08T10:08:54;13.60;99.90
21772;DHT22;11047;47.904;8.110;2022-12-08T10:11:28;13.90;99.90
21772;DHT22;11047;47.904;8.110;2022-12-08T10:14:04;13.70;99.90
21772;DHT22;11047;47.904;8.110;2022-12-08T10:16:37;13.50;99.90
21772;DHT22;11047;47.904;8.110;2022-12-08T10:19:12;13.60;99.90
21772;DHT22;11047;47.904;8.110;2022-12-08T10:21:40;13.50;99.90
21772;DHT22;11047;47.904;8.110;2022-12-08T10:24:15;12.60;99.90
21772;DHT22;11047;47.904;8.110;2022-12-08T10:26:44;12.50;99.90
21772;DHT22;11047;47.904;8.110;2022-12-08T10:29:12;12.50;99.90
21772;DHT22;11047;47.904;8.110;2022-12-08T10:31:40;12.60;99.90
21772;DHT22;11047;47.904;8.110;2022-12-08T10:34:15;12.30;99.90
21772;DHT22;11047;47.904;8.110;2022-12-08T10:36:50;12.30;99.90
21772;DHT22;11047;47.904;8.110;2022-12-08T10:39:35;12.50;99.90
21772;DHT22;11047;47.904;8.110;2022-12-08T10:42:10;12.20;99.90
21772;DHT22;11047;47.904;8.110;2022-12-08T10:44:56;11.80;99.90
21772;DHT22;11047;47.904;8.110;2022-12-08T10:47:25;10.80;99.90
21772;DHT22;11047;47.904;8.110;2022-12-08T10:50:15;10.30;99.90
21772;DHT22;11047;47.904;8.110;2022-12-08T10:52:44;9.90;99.90
21772;DHT22;11047;47.904;8.110;2022-12-08T10:55:16;8.90;99.90
21772;DHT22;11047;47.904;8.110;2022-12-08T10:57:44;9.10;99.90
21772;DHT22;11047;47.904;8.110;2022-12-08T11:00:15;8.60;99.90
21772;DHT22;11047;47.904;8.110;2022-12-08T11:02:54;7.50;99.90
21772;DHT22;11047;47.904;8.110;2022-12-08T11:05:25;6.90;99.90
21772;DHT22;11047;47.904;8.110;2022-12-08T11:07:54;6.80;99.90
21772;DHT22;11047;47.904;8.110;2022-12-08T11:10:35;6.70;99.90
21772;DHT22;11047;47.904;8.110;2022-12-08T11:13:05;6.10;99.90
21772;DHT22;11047;47.904;8.110;2022-12-08T11:15:34;5.80;99.90
21772;DHT22;11047;47.904;8.110;2022-12-08T11:18:11;5.30;99.90
21772;DHT22;11047;47.904;8.110;2022-12-08T11:20:45;5.30;99.90
21772;DHT22;11047;47.904;8.110;2022-12-08T11:23:20;5.20;99.90
21772;DHT22;11047;47.904;8.110;2022-12-08T11:25:49;5.10;99.90
21772;DHT22;11047;47.904;8.110;2022-12-08T11:28:22;4.70;99.90
21772;DHT22;11047;47.904;8.110;2022-12-08T11:30:55;4.40;99.90
21772;DHT22;11047;47.904;8.110;2022-12-08T11:33:24;4.30;99.90
21772;DHT22;11047;47.904;8.110;2022-12-08T11:35:56;4.40;99.90
21772;DHT22;11047;47.904;8.110;2022-12-08T11:38:26;3.60;99.90
21772;DHT22;11047;47.904;8.110;2022-12-08T11:40:57;3.70;99.90
21772;DHT22;11047;47.904;8.110;2022-12-08T11:43:30;3.50;99.90
21772;DHT22;11047;47.904;8.110;2022-12-08T11:46:16;3.40;99.90
21772;DHT22;11047;47.904;8.110;2022-12-08T11:48:48;3.30;99.90
21772;DHT22;11047;47.904;8.110;2022-12-08T11:51:18;3.10;99.90
21772;DHT22;11047;47.904;8.110;2022-12-08T11:54:07;2.60;99.90
21772;DHT22;11047;47.904;8.110;2022-12-08T11:56:41;3.10;99.90
21772;DHT22;11047;47.904;8.110;2022-12-08T11:59:15;3.90;99.90
21772;DHT22;11047;47.904;8.110;2022-12-08T12:01:43;3.30;99.90
21772;DHT22;11047;47.904;8.110;2022-12-08T12:04:15;3.70;99.90
21772;DHT22;11047;47.904;8.110;2022-12-08T12:07:15;2.90;99.90
21772;DHT22;11047;47.904;8.110;2022-12-08T12:10:10;3.00;99.90
21772;DHT22;11047;47.904;8.110;2022-12-08T12:12:56;2.80;99.90
21772;DHT22;11047;47.904;8.110;2022-12-08T12:15:45;2.40;99.90
21772;DHT22;11047;47.904;8.110;2022-12-08T12:18:21;2.20;99.90
21772;DHT22;11047;47.904;8.110;2022-12-08T12:20:53;2.20;99.90
21772;DHT22;11047;47.904;8.110;2022-12-08T12:23:35;2.20;99.90
21772;DHT22;11047;47.904;8.110;2022-12-08T12:26:05;2.00;99.90
21772;DHT22;11047;47.904;8.110;2022-12-08T12:28:42;2.20;99.90
21772;DHT22;11047;47.904;8.110;2022-12-08T12:31:14;2.10;99.90
21772;DHT22;11047;47.904;8.110;2022-12-08T12:33:42;2.10;99.90
21772;DHT22;11047;47.904;8.110;2022-12-08T12:36:12;2.00;99.90
21772;DHT22;11047;47.904;8.110;2022-12-08T12:38:44;2.30;99.90
21772;DHT22;11047;47.904;8.110;2022-12-08T12:41:33;2.40;99.90
21772;DHT22;11047;47.904;8.110;2022-12-08T12:44:22;2.40;99.90
21772;DHT22;11047;47.904;8.110;2022-12-08T12:46:57;2.30;99.90
21772;DHT22;11047;47.904;8.110;2022-12-08T12:52:44;2.70;99.90
21772;DHT22;11047;47.904;8.110;2022-12-08T12:58:47;2.60;99.90
21772;DHT22;11047;47.904;8.110;2022-12-08T13:04:29;2.00;99.90
21772;DHT22;11047;47.904;8.110;2022-12-08T13:06:57;1.90;99.90
21772;DHT22;11047;47.904;8.110;2022-12-08T13:09:33;2.10;99.90
21772;DHT22;11047;47.904;8.110;2022-12-08T13:12:08;1.70;99.90
21772;DHT22;11047;47.904;8.110;2022-12-08T13:14:38;1.90;99.90
21772;DHT22;11047;47.904;8.110;2022-12-08T13:17:15;1.90;99.90
21772;DHT22;11047;47.904;8.110;2022-12-08T13:19:44;2.00;99.90
21772;DHT22;11047;47.904;8.110;2022-12-08T13:25:44;2.20;99.90
21772;DHT22;11047;47.904;8.110;2022-12-08T13:28:17;2.20;99.90
21772;DHT22;11047;47.904;8.110;2022-12-08T13:30:45;2.00;99.90
21772;DHT22;11047;47.904;8.110;2022-12-08T13:33:17;2.00;99.90
21772;DHT22;11047;47.904;8.110;2022-12-08T13:35:55;1.70;99.90
21772;DHT22;11047;47.904;8.110;2022-12-08T13:38:27;1.40;99.90
21772;DHT22;11047;47.904;8.110;2022-12-08T13:40:56;1.30;99.90
21772;DHT22;11047;47.904;8.110;2022-12-08T13:43:32;1.00;99.90
21772;DHT22;11047;47.904;8.110;2022-12-08T13:46:04;0.80;99.90
21772;DHT22;11047;47.904;8.110;2022-12-08T13:48:43;0.70;99.90
21772;DHT22;11047;47.904;8.110;2022-12-08T13:51:16;0.70;99.90
21772;DHT22;11047;47.904;8.110;2022-12-08T13:53:53;0.80;99.90
21772;DHT22;11047;47.904;8.110;2022-12-08T13:56:22;0.80;99.90
21772;DHT22;11047;47.904;8.110;2022-12-08T13:58:49;0.80;99.90
21772;DHT22;11047;47.904;8.110;2022-12-08T14:01:18;0.90;99.90
21772;DHT22;11047;47.904;8.110;2022-12-08T14:03:50;0.60;99.90
21772;DHT22;11047;47.904;8.110;2022-12-08T14:06:20;0.60;99.90
21772;DHT22;11047;47.904;8.110;2022-12-08T14:08:52;0.70;99.90
21772;DHT22;11047;47.904;8.110;2022-12-08T14:11:25;0.60;99.90
21772;DHT22;11047;47.904;8.110;2022-12-08T14:14:03;0.60;99.90
21772;DHT22;11047;47.904;8.110;2022-12-08T14:16:35;0.80;99.90
21772;DHT22;11047;47.904;8.110;2022-12-08T14:19:16;0.90;99.90
21772;DHT22;11047;47.904;8.110;2022-12-08T14:21:50;1.00;99.90
21772;DHT22;11047;47.904;8.110;2022-12-08T14:24:17;1.00;99.90
21772;DHT22;11047;47.904;8.110;2022-12-08T14:26:45;1.00;99.90
21772;DHT22;11047;47.904;8.110;2022-12-08T14:29:39;0.90;99.90
21772;DHT22;11047;47.904;8.110;2022-12-08T14:32:20;1.00;99.90
21772;DHT22;11047;47.904;8.110;2022-12-08T14:34:52;0.90;99.90
21772;DHT22;11047;47.904;8.110;2022-12-08T14:37:19;0.50;99.90
21772;DHT22;11047;47.904;8.110;2022-12-08T14:39:47;0.60;99.90
21772;DHT22;11047;47.904;8.110;2022-12-08T14:42:20;0.60;99.90
21772;DHT22;11047;47.904;8.110;2022-12-08T14:44:58;0.50;99.90
21772;DHT22;11047;47.904;8.110;2022-12-08T14:47:28;0.60;99.90
21772;DHT22;11047;47.904;8.110;2022-12-08T14:49:58;0.40;99.90
21772;DHT22;11047;47.904;8.110;2022-12-08T14:52:25;0.30;99.90
21772;DHT22;11047;47.904;8.110;2022-12-08T14:54:53;0.40;99.90
21772;DHT22;11047;47.904;8.110;2022-12-08T14:57:21;0.20;99.90
21772;DHT22;11047;47.904;8.110;2022-12-08T14:59:48;0.50;99.90
21772;DHT22;11047;47.904;8.110;2022-12-08T15:02:24;0.40;99.90
21772;DHT22;11047;47.904;8.110;2022-12-08T15:04:58;0.00;99.90
21772;DHT22;11047;47.904;8.110;2022-12-08T15:07:28;0.00;99.90
21772;DHT22;11047;47.904;8.110;2022-12-08T15:10:09;0.20;99.90
21772;DHT22;11047;47.904;8.110;2022-12-08T15:12:36;-0.30;99.90
21772;DHT22;11047;47.904;8.110;2022-12-08T15:15:15;-0.20;99.90
21772;DHT22;11047;47.904;8.110;2022-12-08T15:17:44;-0.20;99.90
21772;DHT22;11047;47.904;8.110;2022-12-08T15:20:33;-0.20;99.90
21772;DHT22;11047;47.904;8.110;2022-12-08T15:23:04;-0.20;99.90
21772;DHT22;11047;47.904;8.110;2022-12-08T15:25:31;0.10;99.90
21772;DHT22;11047;47.904;8.110;2022-12-08T15:28:01;-0.20;99.90
21772;DHT22;11047;47.904;8.110;2022-12-08T15:30:28;-0.10;99.90
21772;DHT22;11047;47.904;8.110;2022-12-08T15:32:55;-0.20;99.90
21772;DHT22;11047;47.904;8.110;2022-12-08T15:35:22;-0.30;99.90
21772;DHT22;11047;47.904;8.110;2022-12-08T15:37:51;-0.40;99.90
21772;DHT22;11047;47.904;8.110;2022-12-08T15:40:19;-0.40;99.90
21772;DHT22;11047;47.904;8.110;2022-12-08T15:42:47;-0.50;99.90
21772;DHT22;11047;47.904;8.110;2022-12-08T15:45:16;-0.50;99.90
21772;DHT22;11047;47.904;8.110;2022-12-08T15:47:43;-0.50;99.90
21772;DHT22;11047;47.904;8.110;2022-12-08T15:50:19;-0.50;99.90
21772;DHT22;11047;47.904;8.110;2022-12-08T15:52:47;-0.50;99.90
21772;DHT22;11047;47.904;8.110;2022-12-08T15:55:17;-0.50;99.90
21772;DHT22;11047;47.904;8.110;2022-12-08T15:57:46;-0.60;99.90
21772;DHT22;11047;47.904;8.110;2022-12-08T16:00:26;-0.60;99.90
21772;DHT22;11047;47.904;8.110;2022-12-08T16:02:55;-0.60;99.90
21772;DHT22;11047;47.904;8.110;2022-12-08T16:05:23;0.20;99.90
21772;DHT22;11047;47.904;8.110;2022-12-08T16:07:53;-0.70;99.90
21772;DHT22;11047;47.904;8.110;2022-12-08T16:10:24;-0.40;99.90